Thistle, Utah
Current Conditions -  °F | °C
As of 4:59 PM on Thursday 18 Dec 2014 (Local Time) from KPVU Reporting Station
Rain Showers Rain Showers  
Wind Chill: 37°   Ceiling: 10000
Heat Index: 37°   Visibility: 10mi
Dew Point: 32°   Wind: 0mph
Humidity: 81%   Direction: NA
Pressure: 30.16"   Gusts: NA
Location:  39.7497°N, 111.442°W
Report Text: KPVU 182359Z 00000KT 10SM VCSH SCT050 BKN100 03/00 A3016
Loading
Personal Weather Stations






























Interactive Weather Map New forecast layout! Learn more

10-Day Weather Forecast

Advertisements
Track Severe Weather on mobile